createdAt,value
2023-03-24T00:01:27.578Z,24.43
2023-03-24T00:03:56.106Z,24.47
2023-03-24T00:06:24.605Z,24.51
2023-03-24T00:08:53.995Z,24.55
2023-03-24T00:11:22.486Z,24.59
2023-03-24T00:13:51.272Z,24.65
2023-03-24T00:16:22.569Z,24.72
2023-03-24T00:18:54.473Z,24.78
2023-03-24T00:21:28.030Z,24.86
2023-03-24T00:23:59.537Z,24.93
2023-03-24T00:26:29.228Z,25.01
2023-03-24T00:28:58.244Z,25.07
2023-03-24T00:31:27.296Z,25.15
2023-03-24T00:33:55.856Z,25.20
2023-03-24T00:36:27.078Z,25.30
2023-03-24T00:38:56.430Z,25.37
2023-03-24T00:41:27.763Z,25.43
2023-03-24T00:44:01.273Z,25.50
2023-03-24T00:46:29.950Z,25.57
2023-03-24T00:49:06.559Z,25.63
2023-03-24T00:51:39.722Z,25.72
2023-03-24T00:54:10.536Z,25.79
2023-03-24T00:56:41.640Z,25.86
2023-03-24T00:59:11.220Z,25.93
2023-03-24T01:01:41.998Z,26.01
2023-03-24T01:04:11.287Z,26.07
2023-03-24T01:06:42.046Z,26.14
2023-03-24T01:09:11.516Z,26.23
2023-03-24T01:11:42.440Z,26.31
2023-03-24T01:14:12.793Z,26.39
2023-03-24T01:16:43.026Z,26.47
2023-03-24T01:19:11.913Z,26.54
2023-03-24T01:21:41.017Z,26.63
2023-03-24T01:24:09.530Z,26.71
2023-03-24T01:26:37.954Z,26.79
2023-03-24T01:29:06.940Z,26.87
2023-03-24T01:31:35.544Z,26.97
2023-03-24T01:34:04.460Z,27.06
2023-03-24T01:36:33.313Z,27.16
2023-03-24T01:39:02.248Z,27.23
2023-03-24T01:41:36.803Z,27.32
2023-03-24T01:44:25.025Z,27.42
2023-03-24T01:46:53.405Z,27.50
2023-03-24T01:49:22.427Z,27.57
2023-03-24T01:51:56.362Z,27.65
2023-03-24T01:54:33.713Z,27.74
2023-03-24T01:57:07.915Z,27.82
2023-03-24T01:59:41.186Z,27.91
2023-03-24T02:02:10.854Z,28.00
2023-03-24T02:04:43.795Z,28.08
2023-03-24T02:07:33.382Z,28.18
2023-03-24T02:10:15.948Z,28.28
2023-03-24T02:12:45.962Z,28.39
2023-03-24T02:15:17.312Z,28.48
2023-03-24T02:17:58.161Z,28.58
2023-03-24T02:20:50.489Z,28.68
2023-03-24T02:23:49.232Z,28.80
2023-03-24T02:26:35.570Z,28.90
2023-03-24T02:29:25.473Z,29.00
2023-03-24T02:32:11.171Z,29.06
2023-03-24T02:34:51.893Z,29.14
2023-03-24T02:37:46.960Z,29.24
2023-03-24T02:41:13.444Z,29.36
2023-03-24T02:44:02.321Z,29.45
2023-03-24T02:46:57.363Z,29.56
2023-03-24T02:49:36.237Z,29.66
2023-03-24T02:52:24.672Z,29.76
2023-03-24T02:55:26.158Z,29.86
2023-03-24T02:58:09.070Z,29.96
2023-03-24T03:00:50.645Z,30.02
2023-03-24T03:03:35.519Z,30.11
2023-03-24T03:06:10.261Z,30.19
2023-03-24T03:08:40.312Z,30.26
2023-03-24T03:11:14.355Z,30.34
2023-03-24T03:13:46.201Z,30.44
2023-03-24T03:16:22.310Z,30.54
2023-03-24T03:18:57.289Z,30.65
2023-03-24T03:21:29.342Z,30.75
2023-03-24T03:24:07.801Z,30.85
2023-03-24T03:26:37.324Z,30.94
2023-03-24T03:29:14.047Z,31.03
2023-03-24T03:32:00.165Z,31.15
2023-03-24T03:35:01.345Z,31.25
2023-03-24T03:38:05.116Z,31.34
2023-03-24T03:40:56.779Z,31.44
2023-03-24T03:43:26.845Z,31.52
2023-03-24T03:45:56.652Z,31.59
2023-03-24T03:48:27.393Z,31.65
2023-03-24T03:51:10.302Z,31.72
2023-03-24T03:54:04.016Z,31.79
2023-03-24T03:56:34.649Z,31.84
2023-03-24T03:59:03.992Z,31.91
2023-03-24T04:01:38.056Z,31.98
2023-03-24T04:04:34.295Z,32.07
2023-03-24T04:07:14.742Z,32.18
2023-03-24T04:10:22.719Z,32.26
2023-03-24T04:13:06.220Z,32.36
2023-03-24T04:15:48.313Z,32.43
2023-03-24T04:18:53.431Z,32.52
2023-03-24T04:21:49.536Z,32.61
2023-03-24T04:24:28.355Z,32.67
2023-03-24T04:27:07.676Z,32.75
2023-03-24T04:29:59.180Z,32.82
2023-03-24T04:32:42.605Z,32.86
2023-03-24T04:35:21.606Z,32.93
2023-03-24T04:37:50.951Z,32.98
2023-03-24T04:40:21.964Z,33.06
2023-03-24T04:42:57.122Z,33.10
2023-03-24T04:45:26.733Z,33.16
2023-03-24T04:47:59.740Z,33.22
2023-03-24T04:50:44.196Z,33.27
2023-03-24T04:53:12.794Z,33.33
2023-03-24T04:56:01.605Z,33.40
2023-03-24T04:58:30.805Z,33.48
2023-03-24T05:00:59.603Z,33.55
2023-03-24T05:03:28.019Z,33.61
2023-03-24T05:05:56.401Z,33.67
2023-03-24T05:08:25.040Z,33.70
2023-03-24T05:10:53.409Z,33.76
2023-03-24T05:13:21.771Z,33.79
2023-03-24T05:15:50.822Z,33.84
2023-03-24T05:18:19.145Z,33.89
2023-03-24T05:20:47.538Z,33.94
2023-03-24T05:23:16.082Z,34.00
2023-03-24T05:25:44.813Z,34.05
2023-03-24T05:28:13.413Z,34.14
2023-03-24T05:30:41.917Z,34.19
2023-03-24T05:33:12.792Z,34.28
2023-03-24T05:35:41.451Z,34.34
2023-03-24T05:38:10.106Z,34.40
2023-03-24T05:40:38.759Z,34.49
2023-03-24T05:43:09.065Z,34.52
2023-03-24T05:45:37.456Z,34.58
2023-03-24T05:48:06.362Z,34.65
2023-03-24T05:50:35.231Z,34.71
2023-03-24T05:53:03.633Z,34.78
2023-03-24T05:55:32.005Z,34.81
2023-03-24T05:58:02.977Z,34.86
2023-03-24T06:00:32.754Z,34.81
2023-03-24T06:03:04.186Z,34.82
2023-03-24T06:05:34.388Z,34.84
2023-03-24T06:08:02.754Z,34.87
2023-03-24T06:10:31.150Z,34.94
2023-03-24T06:12:59.608Z,34.97
2023-03-24T06:15:28.666Z,35.06
2023-03-24T06:17:57.184Z,35.13
2023-03-24T06:20:25.562Z,35.18
2023-03-24T06:22:55.374Z,35.22
2023-03-24T06:25:27.127Z,35.23
2023-03-24T06:27:55.682Z,35.22
2023-03-24T06:30:24.054Z,35.24
2023-03-24T06:32:52.542Z,35.30
2023-03-24T06:35:20.971Z,35.37
2023-03-24T06:37:49.366Z,35.41
2023-03-24T06:40:18.477Z,35.46
2023-03-24T06:42:47.227Z,35.54
2023-03-24T06:45:15.625Z,35.58
2023-03-24T06:47:44.001Z,35.61
2023-03-24T06:50:13.205Z,35.63
2023-03-24T06:52:42.869Z,35.68
2023-03-24T06:55:11.423Z,35.70
2023-03-24T06:57:40.025Z,35.76
2023-03-24T07:00:10.047Z,35.78
2023-03-24T07:02:39.291Z,35.81
2023-03-24T07:05:09.902Z,35.78
2023-03-24T07:08:16.883Z,35.80
2023-03-24T07:10:27.342Z,35.81
2023-03-24T07:12:55.797Z,35.86
2023-03-24T07:15:24.415Z,35.88
2023-03-24T07:17:53.026Z,35.93
2023-03-24T07:20:21.761Z,35.96
2023-03-24T07:22:50.208Z,35.97
2023-03-24T07:25:21.386Z,35.99
2023-03-24T07:27:49.944Z,36.00
2023-03-24T07:30:24.243Z,36.03
2023-03-24T07:32:58.106Z,36.04
2023-03-24T07:35:26.861Z,36.06
2023-03-24T07:37:59.416Z,36.07
2023-03-24T07:40:27.904Z,36.04
2023-03-24T07:42:56.367Z,36.07
2023-03-24T07:45:24.811Z,36.08
2023-03-24T07:47:53.271Z,36.09
2023-03-24T07:50:21.880Z,36.12
2023-03-24T07:52:51.450Z,36.17
2023-03-24T07:55:19.877Z,36.17
2023-03-24T07:57:49.718Z,36.20
2023-03-24T08:00:19.296Z,36.22
2023-03-24T08:02:50.689Z,36.26
2023-03-24T08:05:23.149Z,36.29
2023-03-24T08:07:56.549Z,36.33
2023-03-24T08:10:30.365Z,36.33
2023-03-24T08:12:59.785Z,36.31
2023-03-24T08:15:28.903Z,36.26
2023-03-24T08:17:58.006Z,36.26
2023-03-24T08:20:28.070Z,36.21
2023-03-24T08:22:56.915Z,36.17
2023-03-24T08:25:27.734Z,36.11
2023-03-24T08:27:56.893Z,36.08
2023-03-24T08:30:29.065Z,36.03
2023-03-24T08:33:00.454Z,35.98
2023-03-24T08:35:32.687Z,35.92
2023-03-24T08:38:06.081Z,35.87
2023-03-24T08:40:36.119Z,35.83
2023-03-24T08:43:09.521Z,35.80
2023-03-24T08:45:38.597Z,35.75
2023-03-24T08:48:09.298Z,35.73
2023-03-24T08:50:41.124Z,35.71
2023-03-24T08:53:10.592Z,35.63
2023-03-24T08:56:34.297Z,35.56
2023-03-24T08:59:02.813Z,35.50
2023-03-24T09:01:31.328Z,35.52
2023-03-24T09:04:00.484Z,35.51
2023-03-24T09:06:28.937Z,35.51
2023-03-24T09:08:57.592Z,35.47
2023-03-24T09:11:26.129Z,35.44
2023-03-24T09:13:54.743Z,35.36
2023-03-24T09:16:24.242Z,35.31
2023-03-24T09:18:52.804Z,35.29
2023-03-24T09:21:21.276Z,35.26
2023-03-24T09:23:49.702Z,35.24
2023-03-24T09:26:18.368Z,35.23
2023-03-24T09:28:46.843Z,35.23
2023-03-24T09:31:15.278Z,35.24
2023-03-24T09:33:43.707Z,35.25
2023-03-24T09:36:12.618Z,35.26
2023-03-24T09:38:42.212Z,35.25
2023-03-24T09:41:25.945Z,35.25
2023-03-24T09:44:01.877Z,35.24
2023-03-24T09:46:40.329Z,35.22
2023-03-24T09:49:17.644Z,35.18
2023-03-24T09:51:47.944Z,35.12
2023-03-24T09:54:29.769Z,35.08
2023-03-24T09:56:59.508Z,35.02
2023-03-24T09:59:36.386Z,34.97
2023-03-24T10:02:19.400Z,34.91
2023-03-24T10:04:48.648Z,34.83
2023-03-24T10:07:27.220Z,34.77
2023-03-24T10:10:02.333Z,34.70
2023-03-24T10:12:38.450Z,34.64
2023-03-24T10:15:37.578Z,34.57
2023-03-24T10:18:29.786Z,34.48
2023-03-24T10:21:08.377Z,34.41
2023-03-24T10:23:57.957Z,34.33
2023-03-24T10:26:48.357Z,34.25
2023-03-24T10:29:33.518Z,34.15
2023-03-24T10:32:30.866Z,34.06
2023-03-24T10:35:08.533Z,33.99
2023-03-24T10:37:38.128Z,33.90
2023-03-24T10:40:18.993Z,33.80
2023-03-24T10:43:06.258Z,33.69
2023-03-24T10:45:38.051Z,33.59
2023-03-24T10:48:08.378Z,33.49
2023-03-24T10:50:39.104Z,33.40
2023-03-24T10:53:21.526Z,33.35
2023-03-24T10:55:51.715Z,33.26
2023-03-24T10:58:41.935Z,33.19
2023-03-24T11:01:31.480Z,33.09
2023-03-24T11:04:06.721Z,32.98
2023-03-24T11:06:35.467Z,32.89
2023-03-24T11:09:22.440Z,32.80
2023-03-24T11:11:53.600Z,32.72
2023-03-24T11:14:28.263Z,32.65
2023-03-24T11:17:16.639Z,32.57
2023-03-24T11:19:58.917Z,32.49
2023-03-24T11:22:28.124Z,32.42
2023-03-24T11:24:58.852Z,32.37
2023-03-24T11:27:28.535Z,32.31
2023-03-24T11:29:57.257Z,32.24
2023-03-24T11:32:30.804Z,32.19
2023-03-24T11:35:18.304Z,32.12
2023-03-24T11:37:47.727Z,32.06
2023-03-24T11:40:26.923Z,32.01
2023-03-24T11:42:55.269Z,31.95
2023-03-24T11:45:35.500Z,31.91
2023-03-24T11:48:13.109Z,31.87
2023-03-24T11:50:43.204Z,31.83
2023-03-24T11:53:34.265Z,31.79
2023-03-24T11:56:18.095Z,31.75
2023-03-24T11:58:58.532Z,31.71
2023-03-24T12:01:33.490Z,31.62
2023-03-24T12:04:20.076Z,31.55
2023-03-24T12:06:57.815Z,31.46
2023-03-24T12:09:49.256Z,31.40
2023-03-24T12:12:47.824Z,31.32
2023-03-24T12:15:39.112Z,31.26
2023-03-24T12:18:25.562Z,31.21
2023-03-24T12:21:05.602Z,31.16
2023-03-24T12:23:39.975Z,31.14
2023-03-24T12:26:23.606Z,31.12
2023-03-24T12:29:41.757Z,31.06
2023-03-24T12:32:31.777Z,31.02
2023-03-24T12:35:52.269Z,30.97
2023-03-24T12:38:29.352Z,30.94
2023-03-24T12:41:15.896Z,30.91
2023-03-24T12:44:08.343Z,30.87
2023-03-24T12:46:47.618Z,30.83
2023-03-24T12:49:35.350Z,30.80
2023-03-24T12:52:06.700Z,30.77
2023-03-24T12:54:50.612Z,30.75
2023-03-24T12:57:20.798Z,30.72
2023-03-24T12:59:59.020Z,30.70
2023-03-24T13:02:32.063Z,30.67
2023-03-24T13:05:28.612Z,30.65
2023-03-24T13:08:03.531Z,30.63
2023-03-24T13:10:41.561Z,30.60
2023-03-24T13:13:13.080Z,30.58
2023-03-24T13:15:53.642Z,30.57
2023-03-24T13:18:52.014Z,30.55
2023-03-24T13:21:22.656Z,30.53
2023-03-24T13:24:24.332Z,30.53
2023-03-24T13:27:24.643Z,30.51
2023-03-24T13:29:59.182Z,30.47
2023-03-24T13:32:36.451Z,30.41
2023-03-24T13:35:37.032Z,30.35
2023-03-24T13:38:21.351Z,30.31
2023-03-24T13:40:54.794Z,30.27
2023-03-24T13:43:26.237Z,30.26
2023-03-24T13:46:07.280Z,30.24
2023-03-24T13:48:45.696Z,30.21
2023-03-24T13:51:33.227Z,30.20
2023-03-24T13:54:25.244Z,30.18
2023-03-24T13:56:59.317Z,30.16
2023-03-24T14:00:00.672Z,30.13
2023-03-24T14:02:32.325Z,30.09
2023-03-24T14:05:37.780Z,30.08
2023-03-24T14:08:09.219Z,30.05
2023-03-24T14:10:52.516Z,30.04
2023-03-24T14:13:22.217Z,30.03
2023-03-24T14:15:58.446Z,30.02
2023-03-24T14:18:27.071Z,30.02
2023-03-24T14:20:58.720Z,30.00
2023-03-24T14:23:45.090Z,29.99
2023-03-24T14:26:36.014Z,29.97
2023-03-24T14:29:04.755Z,29.95
2023-03-24T14:31:37.103Z,29.94
2023-03-24T14:34:14.906Z,29.92
2023-03-24T14:36:45.978Z,29.89
2023-03-24T14:39:29.230Z,29.85
2023-03-24T14:41:59.219Z,29.83
2023-03-24T14:44:46.216Z,29.80
2023-03-24T14:47:22.710Z,29.78
2023-03-24T14:49:54.797Z,29.76
2023-03-24T14:52:46.734Z,29.73
2023-03-24T14:55:20.184Z,29.69
2023-03-24T14:58:03.618Z,29.67
2023-03-24T15:00:47.159Z,29.64
2023-03-24T15:03:46.686Z,29.59
2023-03-24T15:06:17.081Z,29.56
2023-03-24T15:09:11.230Z,29.53
2023-03-24T15:11:42.681Z,29.48
2023-03-24T15:14:23.687Z,29.44
2023-03-24T15:16:59.697Z,29.40
2023-03-24T15:19:32.862Z,29.37
2023-03-24T15:22:20.076Z,29.34
2023-03-24T15:24:50.591Z,29.31
2023-03-24T15:27:25.775Z,29.28
2023-03-24T15:30:00.247Z,29.25
2023-03-24T15:32:32.806Z,29.26
2023-03-24T15:35:09.766Z,29.26
2023-03-24T15:37:43.819Z,29.23
2023-03-24T15:40:27.559Z,29.20
2023-03-24T15:42:58.227Z,29.15
2023-03-24T15:45:31.380Z,29.12
2023-03-24T15:48:05.867Z,29.11
2023-03-24T15:50:38.821Z,29.08
2023-03-24T15:53:16.780Z,29.04
2023-03-24T15:55:45.371Z,29.00
2023-03-24T15:58:24.844Z,28.98
2023-03-24T16:01:03.748Z,28.94
2023-03-24T16:03:33.250Z,28.90
2023-03-24T16:06:01.835Z,28.85
2023-03-24T16:08:36.892Z,28.80
2023-03-24T16:11:12.775Z,28.77
2023-03-24T16:13:43.799Z,28.74
2023-03-24T16:16:15.201Z,28.71
2023-03-24T16:18:45.731Z,28.69
2023-03-24T16:21:22.778Z,28.66
2023-03-24T16:23:53.572Z,28.63
2023-03-24T16:26:27.248Z,28.62
2023-03-24T16:28:58.835Z,28.57
2023-03-24T16:31:36.994Z,28.55
2023-03-24T16:34:05.330Z,28.52
2023-03-24T16:36:33.938Z,28.50
2023-03-24T16:39:02.944Z,28.50
2023-03-24T16:41:31.370Z,28.48
2023-03-24T16:43:59.716Z,28.46
2023-03-24T16:46:28.069Z,28.45
2023-03-24T16:48:57.395Z,28.43
2023-03-24T16:51:25.796Z,28.39
2023-03-24T16:53:54.377Z,28.37
2023-03-24T16:56:23.999Z,28.34
2023-03-24T16:58:56.320Z,28.33
2023-03-24T17:01:36.618Z,28.28
2023-03-24T17:04:10.407Z,28.25
2023-03-24T17:06:41.977Z,28.23
2023-03-24T17:09:10.970Z,28.19
2023-03-24T17:11:42.893Z,28.16
2023-03-24T17:14:13.229Z,28.13
2023-03-24T17:16:44.844Z,28.10
2023-03-24T17:19:15.153Z,28.09
2023-03-24T17:22:01.204Z,28.05
2023-03-24T17:24:31.186Z,28.01
2023-03-24T17:26:59.610Z,27.99
2023-03-24T17:29:27.967Z,27.95
2023-03-24T17:31:56.671Z,27.92
2023-03-24T17:34:25.086Z,27.91
2023-03-24T17:36:53.454Z,27.85
2023-03-24T17:39:22.841Z,27.80
2023-03-24T17:41:51.325Z,27.74
2023-03-24T17:44:19.703Z,27.70
2023-03-24T17:46:48.103Z,27.65
2023-03-24T17:49:16.530Z,27.60
2023-03-24T17:51:44.996Z,27.57
2023-03-24T17:54:14.270Z,27.53
2023-03-24T17:56:42.695Z,27.49
2023-03-24T17:59:11.129Z,27.46
2023-03-24T18:01:41.279Z,27.45
2023-03-24T18:04:10.100Z,27.44
2023-03-24T18:06:39.417Z,27.44
2023-03-24T18:09:08.376Z,27.45
2023-03-24T18:11:37.414Z,27.45
2023-03-24T18:14:05.818Z,27.45
2023-03-24T18:16:36.297Z,27.43
2023-03-24T18:19:05.187Z,27.41
2023-03-24T18:21:34.610Z,27.36
2023-03-24T18:24:03.053Z,27.34
2023-03-24T18:26:31.827Z,27.32
2023-03-24T18:29:00.328Z,27.29
2023-03-24T18:31:28.734Z,27.26
2023-03-24T18:33:57.067Z,27.24
2023-03-24T18:36:29.997Z,27.21
2023-03-24T18:39:05.383Z,27.19
2023-03-24T18:41:37.828Z,27.17
2023-03-24T18:44:09.154Z,27.14
2023-03-24T18:46:37.885Z,27.12
2023-03-24T18:49:08.002Z,27.09
2023-03-24T18:51:36.780Z,27.05
2023-03-24T18:54:05.294Z,27.04
2023-03-24T18:56:33.766Z,27.01
2023-03-24T18:59:02.714Z,26.97
2023-03-24T19:01:33.869Z,26.95
2023-03-24T19:04:03.271Z,26.94
2023-03-24T19:06:36.084Z,26.93
2023-03-24T19:09:06.215Z,26.91
2023-03-24T19:11:34.566Z,26.88
2023-03-24T19:14:03.297Z,26.86
2023-03-24T19:16:32.256Z,26.84
2023-03-24T19:19:01.893Z,26.83
2023-03-24T19:21:30.356Z,26.81
2023-03-24T19:23:58.922Z,26.78
2023-03-24T19:26:27.334Z,26.77
2023-03-24T19:28:55.666Z,26.75
2023-03-24T19:31:24.108Z,26.72
2023-03-24T19:33:53.314Z,26.70
2023-03-24T19:36:21.708Z,26.67
2023-03-24T19:38:50.142Z,26.64
2023-03-24T19:41:18.490Z,26.64
2023-03-24T19:43:47.300Z,26.61
2023-03-24T19:46:17.411Z,26.59
2023-03-24T19:48:45.799Z,26.55
2023-03-24T19:51:14.201Z,26.53
2023-03-24T19:53:42.628Z,26.49
2023-03-24T19:56:11.631Z,26.47
2023-03-24T19:58:40.059Z,26.45
2023-03-24T20:01:08.488Z,26.43
2023-03-24T20:03:37.561Z,26.42
2023-03-24T20:06:09.998Z,26.40
2023-03-24T20:08:39.415Z,26.39
2023-03-24T20:11:09.659Z,26.36
2023-03-24T20:13:38.205Z,26.34
2023-03-24T20:16:06.906Z,26.31
2023-03-24T20:18:36.622Z,26.29
2023-03-24T20:21:07.213Z,26.26
2023-03-24T20:23:35.631Z,26.25
2023-03-24T20:26:04.070Z,26.22
2023-03-24T20:28:32.459Z,26.21
2023-03-24T20:31:03.389Z,26.18
2023-03-24T20:33:32.262Z,26.16
2023-03-24T20:36:01.211Z,26.13
2023-03-24T20:38:30.141Z,26.12
2023-03-24T20:41:06.421Z,26.08
2023-03-24T20:43:37.315Z,26.06
2023-03-24T20:46:08.587Z,26.02
2023-03-24T20:48:37.573Z,26.00
2023-03-24T20:51:06.743Z,25.96
2023-03-24T20:53:35.964Z,25.94
2023-03-24T20:56:07.763Z,25.92
2023-03-24T20:58:39.259Z,25.90
2023-03-24T21:01:12.675Z,25.88
2023-03-24T21:03:41.802Z,25.87
2023-03-24T21:06:11.768Z,25.86
2023-03-24T21:08:43.935Z,25.82
2023-03-24T21:11:13.672Z,25.80
2023-03-24T21:13:42.177Z,25.78
2023-03-24T21:16:12.536Z,25.77
2023-03-24T21:18:44.577Z,25.74
2023-03-24T21:21:13.924Z,25.75
2023-03-24T21:23:43.821Z,25.75
2023-03-24T21:26:18.184Z,25.76
2023-03-24T21:28:46.801Z,25.76
2023-03-24T21:31:23.160Z,25.74
2023-03-24T21:33:52.637Z,25.73
2023-03-24T21:36:22.353Z,25.72
2023-03-24T21:38:53.028Z,25.71
2023-03-24T21:41:21.914Z,25.71
2023-03-24T21:43:55.003Z,25.70
2023-03-24T21:46:27.624Z,25.67
2023-03-24T21:49:00.156Z,25.66
2023-03-24T21:51:37.556Z,25.65
2023-03-24T21:54:10.670Z,25.62
2023-03-24T21:56:39.169Z,25.57
2023-03-24T21:59:07.525Z,25.55
2023-03-24T22:01:36.891Z,25.51
2023-03-24T22:04:06.764Z,25.49
2023-03-24T22:06:38.510Z,25.47
2023-03-24T22:09:08.171Z,25.45
2023-03-24T22:11:37.182Z,25.44
2023-03-24T22:14:05.635Z,25.43
2023-03-24T22:16:34.031Z,25.40
2023-03-24T22:19:02.506Z,25.38
2023-03-24T22:21:30.906Z,25.36
2023-03-24T22:23:59.320Z,25.34
2023-03-24T22:26:27.709Z,25.32
2023-03-24T22:28:57.143Z,25.30
2023-03-24T22:31:25.618Z,25.29
2023-03-24T22:33:54.668Z,25.27
2023-03-24T22:36:23.077Z,25.25
2023-03-24T22:38:51.414Z,25.23
2023-03-24T22:41:19.767Z,25.21
2023-03-24T22:43:48.120Z,25.19
2023-03-24T22:46:16.469Z,25.16
2023-03-24T22:48:45.089Z,25.15
2023-03-24T22:51:17.777Z,25.12
2023-03-24T22:53:46.990Z,25.11
2023-03-24T22:56:16.616Z,25.10
2023-03-24T22:58:44.989Z,25.09
2023-03-24T23:01:13.428Z,25.09
2023-03-24T23:03:41.930Z,25.09
2023-03-24T23:06:12.656Z,25.08
2023-03-24T23:08:41.160Z,25.09
2023-03-24T23:11:10.338Z,25.08
2023-03-24T23:13:39.720Z,25.07
2023-03-24T23:16:09.165Z,25.07
2023-03-24T23:18:41.365Z,25.06
2023-03-24T23:21:12.468Z,25.06
2023-03-24T23:23:42.382Z,25.06
2023-03-24T23:26:25.847Z,25.04
2023-03-24T23:28:55.157Z,25.04
2023-03-24T23:31:28.038Z,25.04
2023-03-24T23:33:59.153Z,25.03
2023-03-24T23:36:29.135Z,25.04
2023-03-24T23:38:57.575Z,25.05
2023-03-24T23:41:26.069Z,25.06
2023-03-24T23:43:55.341Z,25.07
2023-03-24T23:46:24.848Z,25.09
2023-03-24T23:48:53.558Z,25.09
2023-03-24T23:51:22.168Z,25.12
2023-03-24T23:53:50.511Z,25.14
2023-03-24T23:56:22.372Z,25.16
2023-03-24T23:58:50.785Z,25.19
